createdAt,value
2018-11-20T00:01:39.400Z,5.17
2018-11-20T00:04:34.134Z,5.10
2018-11-20T00:07:21.575Z,4.53
2018-11-20T00:10:09.381Z,4.43
2018-11-20T00:12:56.775Z,5.33
2018-11-20T00:15:44.550Z,5.07
2018-11-20T00:18:36.276Z,5.50
2018-11-20T00:21:14.397Z,5.60
2018-11-20T00:24:01.622Z,5.73
2018-11-20T00:27:01.904Z,5.63
2018-11-20T00:29:39.070Z,5.67
2018-11-20T00:32:26.250Z,5.63
2018-11-20T00:35:17.607Z,6.30
2018-11-20T00:38:04.939Z,5.73
2018-11-20T00:41:05.701Z,5.90
2018-11-20T00:44:06.499Z,5.00
2018-11-20T00:47:01.652Z,4.80
2018-11-20T00:49:51.268Z,5.37
2018-11-20T00:52:42.653Z,5.30
2018-11-20T00:56:24.573Z,5.07
2018-11-20T00:59:31.419Z,4.80
2018-11-20T01:02:23.507Z,4.83
2018-11-20T01:05:14.981Z,4.60
2018-11-20T01:08:02.434Z,5.23
2018-11-20T01:10:50.476Z,5.47
2018-11-20T01:13:34.220Z,5.70
2018-11-20T01:16:25.731Z,6.07
2018-11-20T01:19:23.145Z,4.97
2018-11-20T01:22:17.927Z,5.20
2018-11-20T01:25:18.704Z,5.03
2018-11-20T01:28:07.162Z,5.07
2018-11-20T01:30:58.642Z,5.53
2018-11-20T01:34:05.518Z,4.80
2018-11-20T01:37:06.891Z,5.13
2018-11-20T01:40:07.632Z,5.00
2018-11-20T01:43:02.248Z,5.03
2018-11-20T01:45:54.118Z,5.80
2018-11-20T01:48:54.734Z,5.70
2018-11-20T01:51:42.206Z,5.70
2018-11-20T01:54:39.906Z,6.10
2018-11-20T01:57:28.632Z,5.67
2018-11-20T02:00:16.518Z,5.73
2018-11-20T02:03:03.973Z,6.10
2018-11-20T02:05:44.816Z,5.30
2018-11-20T02:08:36.423Z,5.70
2018-11-20T02:11:24.131Z,6.10
2018-11-20T02:14:35.039Z,5.57
2018-11-20T02:17:31.737Z,5.50
2018-11-20T02:20:20.587Z,6.37
2018-11-20T02:23:09.354Z,6.33
2018-11-20T02:26:06.909Z,6.63
2018-11-20T02:29:13.826Z,6.70
2018-11-20T02:31:55.505Z,6.40
2018-11-20T02:34:43.019Z,6.40
2018-11-20T02:37:30.536Z,6.97
2018-11-20T02:40:21.800Z,6.40
2018-11-20T02:43:13.085Z,6.30
2018-11-20T02:46:07.351Z,6.60
2018-11-20T02:49:02.125Z,6.53
2018-11-20T02:51:53.608Z,6.93
2018-11-20T02:54:51.260Z,6.73
2018-11-20T02:57:44.030Z,6.63
2018-11-20T03:00:26.520Z,6.87
2018-11-20T03:03:18.067Z,6.60
2018-11-20T03:06:07.642Z,6.93
2018-11-20T03:08:55.167Z,6.37
2018-11-20T03:11:43.051Z,6.00
2018-11-20T03:14:30.763Z,6.43
2018-11-20T03:17:34.827Z,6.90
2018-11-20T03:20:22.211Z,6.57
2018-11-20T03:23:23.589Z,6.57
2018-11-20T03:26:19.264Z,7.47
2018-11-20T03:29:46.085Z,6.23
2018-11-20T03:32:37.300Z,5.90
2018-11-20T03:35:21.069Z,6.80
2018-11-20T03:38:15.559Z,6.67
2018-11-20T03:41:04.687Z,6.57
2018-11-20T03:43:56.101Z,6.80
2018-11-20T03:46:40.558Z,6.50
2018-11-20T03:49:32.435Z,6.73
2018-11-20T03:52:19.658Z,6.67
2018-11-20T03:55:06.934Z,6.73
2018-11-20T03:57:54.237Z,6.03
2018-11-20T04:00:51.757Z,6.90
2018-11-20T04:03:58.680Z,5.87
2018-11-20T04:06:59.507Z,7.10
2018-11-20T04:09:45.817Z,6.90
2018-11-20T04:12:34.872Z,7.17
2018-11-20T04:15:32.891Z,7.23
2018-11-20T04:18:21.736Z,7.17
2018-11-20T04:21:03.768Z,7.27
2018-11-20T04:23:55.410Z,6.10
2018-11-20T04:26:38.050Z,6.83
2018-11-20T04:29:19.833Z,6.93
2018-11-20T04:32:20.545Z,6.63
2018-11-20T04:35:14.941Z,6.67
2018-11-20T04:38:00.446Z,7.47
2018-11-20T04:40:51.723Z,6.37
2018-11-20T04:43:46.675Z,6.40
2018-11-20T04:46:34.024Z,6.30
2018-11-20T04:49:25.649Z,5.77
2018-11-20T04:52:20.489Z,5.20
2018-11-20T04:55:10.231Z,5.70
2018-11-20T04:57:53.063Z,5.17
2018-11-20T05:00:42.301Z,4.57
2018-11-20T05:03:33.804Z,4.20
2018-11-20T05:06:25.514Z,4.53
2018-11-20T05:09:20.300Z,4.83
2018-11-20T05:12:12.070Z,4.13
2018-11-20T05:15:00.267Z,5.20
2018-11-20T05:17:57.868Z,4.57
2018-11-20T05:20:46.554Z,4.60
2018-11-20T05:23:35.490Z,4.37
2018-11-20T05:26:33.314Z,5.10
2018-11-20T05:29:20.879Z,6.13
2018-11-20T05:32:15.417Z,6.50
2018-11-20T05:35:22.483Z,6.87
2018-11-20T05:37:58.485Z,6.23
2018-11-20T05:40:45.927Z,5.00
2018-11-20T05:43:33.240Z,5.57
2018-11-20T05:46:20.751Z,5.83
2018-11-20T05:49:08.572Z,6.33
2018-11-20T05:51:55.975Z,8.13
2018-11-20T05:54:47.572Z,12.57
2018-11-20T05:57:28.121Z,7.80
2018-11-20T06:00:15.714Z,8.43
2018-11-20T06:03:10.265Z,11.93
2018-11-20T06:05:59.409Z,18.20
2018-11-20T06:08:46.260Z,16.13
2018-11-20T06:11:47.087Z,7.47
2018-11-20T06:14:44.322Z,9.33
2018-11-20T06:17:33.130Z,9.50
2018-11-20T06:20:26.585Z,9.17
2018-11-20T06:23:18.355Z,7.20
2018-11-20T06:26:05.693Z,7.80
2018-11-20T06:28:53.078Z,10.30
2018-11-20T06:31:40.824Z,7.83
2018-11-20T06:34:32.826Z,9.77
2018-11-20T06:37:30.650Z,9.97
2018-11-20T06:40:11.868Z,8.37
2018-11-20T06:42:54.930Z,10.50
2018-11-20T06:45:44.722Z,9.07
2018-11-20T06:48:45.823Z,7.73
2018-11-20T06:51:35.321Z,10.47
2018-11-20T06:54:37.262Z,10.73
2018-11-20T06:57:32.158Z,11.70
2018-11-20T07:00:19.354Z,20.93
2018-11-20T07:03:12.602Z,10.40
2018-11-20T07:06:00.582Z,12.07
2018-11-20T07:09:04.740Z,11.70
2018-11-20T07:12:00.005Z,10.50
2018-11-20T07:14:50.466Z,9.03
2018-11-20T07:17:40.757Z,10.23
2018-11-20T07:20:28.173Z,9.20
2018-11-20T07:23:15.465Z,12.73
2018-11-20T07:25:59.832Z,10.07
2018-11-20T07:29:03.500Z,8.40
2018-11-20T07:32:00.500Z,8.97
2018-11-20T07:34:42.953Z,8.40
2018-11-20T07:37:34.450Z,8.37
2018-11-20T07:40:30.264Z,8.57
2018-11-20T07:43:24.775Z,7.10
2018-11-20T07:46:04.366Z,7.37
2018-11-20T07:48:55.701Z,6.43
2018-11-20T07:51:42.926Z,8.20
2018-11-20T07:54:30.583Z,8.33
2018-11-20T07:57:13.373Z,8.10
2018-11-20T08:00:13.755Z,7.57
2018-11-20T08:03:06.584Z,7.70
2018-11-20T08:05:55.681Z,8.40
2018-11-20T08:08:43.263Z,6.70
2018-11-20T08:11:29.158Z,6.73
2018-11-20T08:14:30.165Z,8.73
2018-11-20T08:17:21.939Z,8.20
2018-11-20T08:20:26.288Z,8.00
2018-11-20T08:23:15.165Z,7.33
2018-11-20T08:26:15.891Z,7.97
2018-11-20T08:29:02.760Z,6.33
2018-11-20T08:31:54.449Z,8.07
2018-11-20T08:34:55.119Z,7.27
2018-11-20T08:37:52.794Z,8.30
2018-11-20T08:40:40.173Z,9.17
2018-11-20T08:43:34.781Z,7.03
2018-11-20T08:46:38.333Z,8.37
2018-11-20T08:49:27.149Z,7.43
2018-11-20T08:52:20.453Z,7.70
2018-11-20T08:55:09.299Z,8.60
2018-11-20T08:58:03.683Z,8.37
2018-11-20T09:01:01.528Z,8.03
2018-11-20T09:03:40.190Z,8.50
2018-11-20T09:06:19.371Z,8.60
2018-11-20T09:09:05.905Z,8.40
2018-11-20T09:12:06.305Z,8.80
2018-11-20T09:14:53.562Z,7.70
2018-11-20T09:17:40.973Z,8.17
2018-11-20T09:20:48.358Z,8.50
2018-11-20T09:23:35.552Z,9.83
2018-11-20T09:26:23.101Z,10.93
2018-11-20T09:29:11.053Z,7.17
2018-11-20T09:32:08.844Z,8.73
2018-11-20T09:34:55.320Z,8.73
2018-11-20T09:37:42.475Z,10.07
2018-11-20T09:41:26.299Z,10.27
2018-11-20T09:44:45.533Z,9.63
2018-11-20T09:47:33.018Z,10.50
2018-11-20T09:50:37.739Z,9.30
2018-11-20T09:53:32.184Z,10.40
2018-11-20T09:56:27.107Z,9.47
2018-11-20T09:59:27.861Z,9.80
2018-11-20T10:02:09.061Z,10.17
2018-11-20T10:04:56.868Z,10.37
2018-11-20T10:07:41.564Z,8.83
2018-11-20T10:10:33.405Z,9.27
2018-11-20T10:13:27.953Z,10.63
2018-11-20T10:16:16.294Z,10.43
2018-11-20T10:19:09.289Z,9.40
2018-11-20T10:21:53.163Z,10.03
2018-11-20T10:24:44.663Z,8.70
2018-11-20T10:27:39.004Z,9.83
2018-11-20T10:30:31.156Z,8.10
2018-11-20T10:33:25.927Z,9.10
2018-11-20T10:36:17.707Z,10.23
2018-11-20T10:39:06.448Z,9.73
2018-11-20T10:42:13.378Z,9.97
2018-11-20T10:45:11.589Z,7.53
2018-11-20T10:47:58.811Z,7.77
2018-11-20T10:50:46.658Z,8.77
2018-11-20T10:53:50.628Z,7.87
2018-11-20T10:56:47.753Z,9.80
2018-11-20T10:59:36.635Z,9.00
2018-11-20T11:02:24.168Z,10.57
2018-11-20T11:05:12.918Z,8.27
2018-11-20T11:08:01.599Z,9.03
2018-11-20T11:10:53.025Z,8.67
2018-11-20T11:13:40.818Z,8.60
2018-11-20T11:16:44.658Z,8.70
2018-11-20T11:19:31.993Z,8.97
2018-11-20T11:22:11.974Z,8.67
2018-11-20T11:24:58.980Z,8.50
2018-11-20T11:27:50.623Z,8.13
2018-11-20T11:30:48.460Z,8.37
2018-11-20T11:33:43.019Z,9.30
2018-11-20T11:36:34.535Z,8.10
2018-11-20T11:39:28.824Z,6.93
2018-11-20T11:42:32.683Z,8.97
2018-11-20T11:45:24.188Z,7.33
2018-11-20T11:48:27.918Z,7.07
2018-11-20T11:51:28.605Z,8.60
2018-11-20T11:54:20.292Z,10.30
2018-11-20T11:57:15.272Z,8.73
2018-11-20T12:00:02.979Z,10.30
2018-11-20T12:05:47.668Z,15.37
2018-11-20T12:08:28.017Z,10.50
2018-11-20T12:11:28.683Z,9.13
2018-11-20T12:14:21.647Z,12.33
2018-11-20T12:17:10.440Z,8.50
2018-11-20T12:20:04.936Z,18.17
2018-11-20T12:22:59.711Z,8.43
2018-11-20T12:25:57.508Z,9.20
2018-11-20T12:28:35.834Z,13.47
2018-11-20T12:31:23.282Z,8.17
2018-11-20T12:34:25.470Z,11.90
2018-11-20T12:37:16.807Z,13.23
2018-11-20T12:40:23.823Z,8.20
2018-11-20T12:43:12.518Z,8.37
2018-11-20T12:46:00.109Z,13.90
2018-11-20T12:48:48.084Z,9.40
2018-11-20T12:51:28.880Z,8.60
2018-11-20T12:54:20.565Z,9.40
2018-11-20T12:57:27.854Z,9.43
2018-11-20T13:00:15.138Z,7.20
2018-11-20T13:03:22.231Z,13.57
2018-11-20T13:06:28.864Z,8.67
2018-11-20T13:09:16.019Z,14.50
2018-11-20T13:12:17.170Z,10.70
2018-11-20T13:15:20.997Z,8.63
2018-11-20T13:18:01.306Z,9.67
2018-11-20T13:21:04.936Z,11.13
2018-11-20T13:23:56.627Z,10.10
2018-11-20T13:26:52.930Z,13.00
2018-11-20T13:29:52.311Z,8.87
2018-11-20T13:32:39.542Z,9.87
2018-11-20T13:35:30.969Z,9.63
2018-11-20T13:38:17.807Z,11.07
2018-11-20T13:41:52.250Z,19.10
2018-11-20T13:44:46.060Z,8.90
2018-11-20T13:47:33.724Z,14.97
2018-11-20T13:50:20.610Z,9.87
2018-11-20T13:53:07.889Z,13.90
2018-11-20T13:56:11.907Z,14.37
2018-11-20T13:58:59.188Z,13.30
2018-11-20T14:01:40.370Z,9.77
2018-11-20T14:04:31.851Z,9.33
2018-11-20T14:07:20.545Z,9.13
2018-11-20T14:10:06.990Z,8.20
2018-11-20T14:12:55.352Z,8.93
2018-11-20T14:15:52.431Z,8.97
2018-11-20T14:18:41.081Z,7.57
2018-11-20T14:21:28.488Z,10.77
2018-11-20T14:24:22.984Z,8.43
2018-11-20T14:27:10.428Z,8.20
2018-11-20T14:30:09.691Z,7.67
2018-11-20T14:33:04.307Z,9.47
2018-11-20T14:35:58.910Z,8.40
2018-11-20T14:38:53.074Z,8.97
2018-11-20T14:41:44.924Z,8.43
2018-11-20T14:44:28.332Z,7.10
2018-11-20T14:47:35.547Z,8.40
2018-11-20T14:50:40.360Z,8.23
2018-11-20T14:53:29.080Z,8.43
2018-11-20T14:56:14.453Z,8.17
2018-11-20T14:59:03.210Z,9.40
2018-11-20T15:01:54.678Z,8.70
2018-11-20T15:04:42.023Z,8.50
2018-11-20T15:07:21.802Z,9.20
2018-11-20T15:10:19.264Z,9.10
2018-11-20T15:13:20.006Z,8.60
2018-11-20T15:16:47.189Z,9.53
2018-11-20T15:19:33.339Z,9.53
2018-11-20T15:22:19.575Z,8.70
2018-11-20T15:24:55.153Z,9.27
2018-11-20T15:27:45.924Z,9.10
2018-11-20T15:30:42.396Z,9.53
2018-11-20T15:33:33.090Z,8.87
2018-11-20T15:36:20.558Z,10.37
2018-11-20T15:39:10.682Z,8.37
2018-11-20T15:41:48.618Z,9.60
2018-11-20T15:44:42.494Z,9.17
2018-11-20T15:47:27.700Z,8.90
2018-11-20T15:50:06.686Z,10.07
2018-11-20T15:52:54.254Z,10.10
2018-11-20T15:55:41.828Z,9.73
2018-11-20T15:58:28.013Z,7.87
2018-11-20T16:01:22.909Z,9.20
2018-11-20T16:04:03.114Z,11.17
2018-11-20T16:06:53.994Z,9.53
2018-11-20T16:09:53.360Z,10.00
2018-11-20T16:12:40.892Z,9.53
2018-11-20T16:15:28.488Z,9.93
2018-11-20T16:18:25.101Z,9.97
2018-11-20T16:21:18.428Z,11.70
2018-11-20T16:24:04.777Z,9.87
2018-11-20T16:26:50.997Z,10.10
2018-11-20T16:29:38.684Z,10.63
2018-11-20T16:32:24.777Z,10.87
2018-11-20T16:35:07.119Z,10.50
2018-11-20T16:38:01.064Z,11.40
2018-11-20T16:40:48.894Z,11.70
2018-11-20T16:43:36.407Z,11.37
2018-11-20T16:46:23.991Z,11.77
2018-11-20T16:49:08.338Z,12.30
2018-11-20T16:52:00.645Z,12.87
2018-11-20T16:54:46.740Z,13.03
2018-11-20T16:57:43.317Z,13.33
2018-11-20T17:00:37.223Z,12.87
2018-11-20T17:03:36.741Z,13.83
2018-11-20T17:06:30.344Z,14.13
2018-11-20T17:09:16.695Z,14.03
2018-11-20T17:12:07.414Z,14.87
2018-11-20T17:15:07.038Z,13.73
2018-11-20T17:17:53.367Z,14.73
2018-11-20T17:20:39.309Z,14.97
2018-11-20T17:23:36.007Z,14.23
2018-11-20T17:26:41.837Z,15.63
2018-11-20T17:29:41.215Z,17.60
2018-11-20T17:32:27.237Z,15.50
2018-11-20T17:35:20.780Z,22.73
2018-11-20T17:38:20.039Z,16.63
2018-11-20T17:41:13.537Z,26.43
2018-11-20T17:44:07.330Z,19.23
2018-11-20T17:46:53.731Z,30.07
2018-11-20T17:49:39.895Z,17.53
2018-11-20T17:52:36.410Z,26.63
2018-11-20T17:55:28.795Z,20.27
2018-11-20T17:58:28.587Z,18.13
2018-11-20T18:01:22.255Z,18.50
2018-11-20T18:04:15.702Z,12.90
2018-11-20T18:07:02.337Z,18.53
2018-11-20T18:10:01.920Z,12.27
2018-11-20T18:12:48.152Z,14.37
2018-11-20T18:15:35.705Z,19.60
2018-11-20T18:18:26.313Z,12.83
2018-11-20T18:21:12.641Z,10.53
2018-11-20T18:24:00.339Z,12.77
2018-11-20T18:26:50.780Z,15.17
2018-11-20T18:29:47.402Z,14.27
2018-11-20T18:32:33.573Z,15.53
2018-11-20T18:35:21.197Z,14.87
2018-11-20T18:38:07.483Z,14.07
2018-11-20T18:41:10.435Z,14.20
2018-11-20T18:43:56.694Z,14.53
2018-11-20T18:46:47.335Z,14.40
2018-11-20T18:49:33.766Z,14.27
2018-11-20T18:52:24.163Z,14.77
2018-11-20T18:55:20.628Z,14.63
2018-11-20T18:58:11.077Z,14.00
2018-11-20T19:01:01.207Z,13.97
2018-11-20T19:04:00.455Z,14.37
2018-11-20T19:06:46.788Z,14.60
2018-11-20T19:09:38.802Z,14.57
2018-11-20T19:12:41.431Z,14.83
2018-11-20T19:15:44.369Z,12.97
2018-11-20T19:18:19.145Z,14.40
2018-11-20T19:21:06.148Z,13.40
2018-11-20T19:23:56.532Z,16.47
2018-11-20T19:26:50.139Z,17.47
2018-11-20T19:29:48.801Z,19.07
2018-11-20T19:32:48.620Z,14.57
2018-11-20T19:35:36.228Z,25.17
2018-11-20T19:38:33.315Z,19.10
2018-11-20T19:41:23.626Z,18.87
2018-11-20T19:44:11.286Z,23.43
2018-11-20T19:47:08.903Z,26.63
2018-11-20T19:49:55.233Z,25.47
2018-11-20T19:52:54.816Z,22.40
2018-11-20T19:55:41.619Z,25.90
2018-11-20T19:58:29.664Z,25.07
2018-11-20T20:01:16.211Z,19.10
2018-11-20T20:04:07.073Z,19.50
2018-11-20T20:06:53.268Z,27.67
2018-11-20T20:09:43.649Z,17.30
2018-11-20T20:12:31.916Z,21.80
2018-11-20T20:15:28.794Z,21.90
2018-11-20T20:18:16.744Z,21.87
2018-11-20T20:21:13.722Z,18.00
2018-11-20T20:24:07.803Z,19.27
2018-11-20T20:27:10.254Z,18.27
2018-11-20T20:30:00.816Z,16.50
2018-11-20T20:32:54.433Z,17.47
2018-11-20T20:35:51.182Z,18.50
2018-11-20T20:38:37.578Z,19.37
2018-11-20T20:41:37.343Z,19.43
2018-11-20T20:44:23.535Z,19.40
2018-11-20T20:47:11.166Z,21.33
2018-11-20T20:49:57.760Z,21.67
2018-11-20T20:52:51.411Z,19.03
2018-11-20T20:55:44.605Z,21.47
2018-11-20T20:58:41.915Z,21.97
2018-11-20T21:01:47.457Z,21.30
2018-11-20T21:04:34.319Z,22.73
2018-11-20T21:07:21.884Z,24.07
2018-11-20T21:10:08.115Z,21.60
2018-11-20T21:12:59.821Z,22.70
2018-11-20T21:15:47.471Z,21.80
2018-11-20T21:18:33.535Z,21.33
2018-11-20T21:21:33.796Z,22.10
2018-11-20T21:24:15.526Z,20.13
2018-11-20T21:27:01.811Z,23.17
2018-11-20T21:29:48.232Z,21.43
2018-11-20T21:32:33.121Z,22.67
2018-11-20T21:35:16.006Z,21.93
2018-11-20T21:38:21.761Z,22.30
2018-11-20T21:41:27.306Z,20.00
2018-11-20T21:44:13.590Z,19.40
2018-11-20T21:47:07.175Z,24.37
2018-11-20T21:49:54.780Z,20.07
2018-11-20T21:52:37.448Z,23.67
2018-11-20T21:55:22.736Z,22.67
2018-11-20T21:58:10.320Z,20.63
2018-11-20T22:01:07.230Z,19.43
2018-11-20T22:03:53.923Z,20.43
2018-11-20T22:06:40.079Z,20.57
2018-11-20T22:09:17.300Z,22.27
2018-11-20T22:12:13.482Z,21.97
2018-11-20T22:14:58.646Z,22.53
2018-11-20T22:17:44.701Z,20.50
2018-11-20T22:20:35.095Z,21.83
2018-11-20T22:23:21.041Z,22.40
2018-11-20T22:26:08.652Z,22.80
2018-11-20T22:28:59.192Z,21.93
2018-11-20T22:31:45.424Z,22.07
2018-11-20T22:34:32.146Z,21.57
2018-11-20T22:37:30.329Z,20.57
2018-11-20T22:40:27.464Z,20.77
2018-11-20T22:43:18.052Z,21.13
2018-11-20T22:46:05.662Z,22.97
2018-11-20T22:48:52.009Z,21.73
2018-11-20T22:51:45.079Z,21.97
2018-11-20T22:54:32.643Z,21.33
2018-11-20T22:57:18.457Z,20.97
2018-11-20T22:59:59.771Z,20.00
2018-11-20T23:03:05.987Z,20.83
2018-11-20T23:05:55.329Z,21.17
2018-11-20T23:08:23.394Z,20.80
2018-11-20T23:10:51.457Z,21.87
2018-11-20T23:13:19.819Z,20.60
2018-11-20T23:15:47.852Z,20.43
2018-11-20T23:18:15.825Z,17.93
2018-11-20T23:20:44.096Z,19.67
2018-11-20T23:23:12.079Z,21.43
2018-11-20T23:25:40.141Z,19.30
2018-11-20T23:28:08.142Z,22.30
2018-11-20T23:30:36.222Z,19.73
2018-11-20T23:33:04.955Z,19.73
2018-11-20T23:35:32.950Z,19.70
2018-11-20T23:38:01.002Z,20.13
2018-11-20T23:40:29.358Z,18.37
2018-11-20T23:42:57.404Z,19.37
2018-11-20T23:45:25.478Z,19.47
2018-11-20T23:47:53.548Z,18.80
2018-11-20T23:50:21.563Z,20.20
2018-11-20T23:52:49.947Z,18.47
2018-11-20T23:55:18.224Z,19.30
2018-11-20T23:57:46.385Z,19.30
